createdAt,value
2022-08-27T00:00:32.638Z,19.80
2022-08-27T00:02:59.618Z,19.80
2022-08-27T00:05:26.641Z,19.90
2022-08-27T00:07:53.997Z,19.90
2022-08-27T00:10:24.932Z,19.90
2022-08-27T00:12:52.813Z,19.90
2022-08-27T00:15:20.189Z,19.80
2022-08-27T00:17:47.766Z,19.80
2022-08-27T00:20:18.615Z,19.80
2022-08-27T00:22:45.834Z,19.80
2022-08-27T00:25:13.171Z,19.80
2022-08-27T00:27:40.967Z,19.80
2022-08-27T00:30:11.203Z,19.90
2022-08-27T00:32:38.799Z,19.90
2022-08-27T00:35:06.673Z,19.90
2022-08-27T00:37:34.097Z,20.00
2022-08-27T00:40:01.909Z,20.00
2022-08-27T00:42:31.062Z,20.00
2022-08-27T00:44:59.320Z,19.90
2022-08-27T00:47:29.478Z,20.00
2022-08-27T00:50:02.689Z,20.00
2022-08-27T00:52:41.997Z,20.00
2022-08-27T00:55:16.521Z,20.00
2022-08-27T00:57:48.108Z,19.90
2022-08-27T01:00:17.068Z,20.00
2022-08-27T01:02:46.278Z,20.00
2022-08-27T01:05:17.230Z,20.00
2022-08-27T01:07:48.207Z,20.00
2022-08-27T01:10:20.202Z,20.10
2022-08-27T01:12:53.711Z,20.00
2022-08-27T01:15:24.321Z,20.10
2022-08-27T01:17:51.501Z,20.00
2022-08-27T01:20:24.519Z,20.10
2022-08-27T01:23:24.822Z,20.10
2022-08-27T01:25:52.345Z,20.10
2022-08-27T01:28:23.551Z,20.10
2022-08-27T01:30:53.890Z,20.20
2022-08-27T01:33:21.873Z,20.10
2022-08-27T01:35:51.033Z,20.20
2022-08-27T01:38:30.945Z,20.20
2022-08-27T01:40:59.185Z,20.20
2022-08-27T01:43:28.016Z,20.20
2022-08-27T01:45:55.118Z,20.20
2022-08-27T01:48:23.117Z,20.20
2022-08-27T01:50:50.438Z,20.20
2022-08-27T01:53:21.133Z,20.30
2022-08-27T01:55:50.308Z,20.20
2022-08-27T01:58:18.572Z,20.30
2022-08-27T02:00:48.834Z,20.30
2022-08-27T02:03:21.831Z,20.30
2022-08-27T02:05:49.166Z,20.20
2022-08-27T02:08:17.612Z,20.20
2022-08-27T02:10:46.097Z,20.20
2022-08-27T02:13:13.442Z,20.10
2022-08-27T02:15:41.654Z,20.20
2022-08-27T02:18:09.955Z,20.40
2022-08-27T02:20:36.934Z,20.30
2022-08-27T02:23:04.891Z,20.10
2022-08-27T02:25:33.065Z,20.20
2022-08-27T02:28:00.729Z,20.10
2022-08-27T02:30:32.088Z,20.00
2022-08-27T02:33:04.377Z,20.00
2022-08-27T02:35:33.982Z,19.90
2022-08-27T02:38:02.244Z,19.90
2022-08-27T02:40:29.707Z,19.90
2022-08-27T02:42:56.618Z,19.80
2022-08-27T02:45:23.610Z,19.80
2022-08-27T02:47:50.548Z,19.80
2022-08-27T02:50:18.071Z,19.80
2022-08-27T02:52:46.478Z,19.70
2022-08-27T02:55:14.476Z,19.70
2022-08-27T02:57:45.181Z,19.60
2022-08-27T03:00:16.749Z,19.60
2022-08-27T03:02:44.256Z,19.70
2022-08-27T03:05:12.995Z,19.60
2022-08-27T03:07:40.324Z,19.40
2022-08-27T03:10:08.692Z,19.20
2022-08-27T03:12:36.661Z,19.00
2022-08-27T03:15:05.110Z,18.80
2022-08-27T03:17:50.727Z,18.70
2022-08-27T03:20:18.998Z,18.70
2022-08-27T03:22:46.187Z,18.70
2022-08-27T03:25:13.236Z,18.70
2022-08-27T03:27:40.052Z,18.80
2022-08-27T03:30:11.613Z,18.80
2022-08-27T03:32:39.845Z,18.80
2022-08-27T03:35:07.510Z,18.80
2022-08-27T03:37:35.203Z,18.90
2022-08-27T03:40:02.395Z,18.90
2022-08-27T03:42:29.419Z,19.00
2022-08-27T03:44:56.482Z,19.00
2022-08-27T03:47:23.943Z,19.00
2022-08-27T03:49:50.838Z,19.00
2022-08-27T03:52:19.489Z,19.10
2022-08-27T03:54:46.737Z,19.10
2022-08-27T03:57:13.577Z,19.20
2022-08-27T03:59:40.432Z,19.20
2022-08-27T04:02:07.451Z,19.20
2022-08-27T04:04:35.539Z,19.30
2022-08-27T04:07:02.704Z,19.30
2022-08-27T04:09:29.696Z,19.30
2022-08-27T04:11:56.555Z,19.30
2022-08-27T04:14:26.902Z,19.40
2022-08-27T04:16:56.349Z,19.40
2022-08-27T04:19:27.808Z,19.50
2022-08-27T04:22:02.704Z,19.50
2022-08-27T04:24:31.544Z,19.50
2022-08-27T04:26:59.877Z,19.50
2022-08-27T04:29:27.498Z,19.50
2022-08-27T04:31:55.064Z,19.50
2022-08-27T04:34:22.145Z,19.50
2022-08-27T04:36:50.171Z,19.60
2022-08-27T04:39:17.284Z,19.50
2022-08-27T04:41:44.307Z,19.60
2022-08-27T04:44:11.658Z,19.60
2022-08-27T04:46:40.703Z,19.60
2022-08-27T04:49:12.710Z,19.60
2022-08-27T04:51:42.889Z,19.60
2022-08-27T04:54:11.132Z,19.70
2022-08-27T04:56:39.462Z,19.70
2022-08-27T04:59:09.250Z,19.80
2022-08-27T05:01:38.027Z,19.80
2022-08-27T05:04:05.252Z,19.80
2022-08-27T05:06:33.240Z,19.80
2022-08-27T05:09:00.255Z,19.80
2022-08-27T05:11:32.402Z,19.80
2022-08-27T05:13:59.431Z,19.80
2022-08-27T05:16:26.370Z,19.90
2022-08-27T05:18:53.423Z,19.90
2022-08-27T05:21:26.532Z,19.90
2022-08-27T05:23:54.721Z,20.00
2022-08-27T05:26:22.288Z,20.00
2022-08-27T05:28:49.169Z,19.90
2022-08-27T05:31:18.140Z,19.90
2022-08-27T05:33:45.498Z,19.80
2022-08-27T05:36:19.785Z,19.80
2022-08-27T05:38:49.078Z,19.80
2022-08-27T05:41:18.583Z,19.90
2022-08-27T05:43:49.858Z,20.00
2022-08-27T05:46:20.649Z,20.10
2022-08-27T05:48:48.839Z,20.20
2022-08-27T05:51:38.836Z,20.20
2022-08-27T05:54:09.002Z,20.30
2022-08-27T05:56:37.963Z,20.40
2022-08-27T05:59:24.791Z,20.40
2022-08-27T06:01:54.492Z,20.50
2022-08-27T06:04:23.583Z,20.50
2022-08-27T06:06:52.172Z,20.50
2022-08-27T06:09:22.940Z,20.50
2022-08-27T06:11:50.527Z,20.50
2022-08-27T06:14:17.350Z,20.50
2022-08-27T06:16:44.423Z,20.50
2022-08-27T06:19:14.489Z,20.40
2022-08-27T06:21:42.235Z,20.50
2022-08-27T06:24:12.441Z,20.60
2022-08-27T06:26:44.335Z,20.60
2022-08-27T06:29:13.248Z,20.60
2022-08-27T06:31:40.820Z,20.60
2022-08-27T06:34:09.737Z,20.60
2022-08-27T06:36:39.827Z,20.70
2022-08-27T06:39:08.014Z,20.80
2022-08-27T06:41:35.493Z,20.90
2022-08-27T06:44:02.975Z,21.00
2022-08-27T06:46:30.140Z,21.10
2022-08-27T06:49:00.847Z,21.20
2022-08-27T06:51:31.361Z,21.10
2022-08-27T06:54:01.564Z,21.20
2022-08-27T06:56:29.236Z,21.30
2022-08-27T06:58:58.328Z,21.30
2022-08-27T07:01:31.672Z,21.30
2022-08-27T07:04:01.521Z,21.40
2022-08-27T07:06:30.631Z,21.60
2022-08-27T07:08:58.133Z,21.60
2022-08-27T07:11:29.132Z,21.80
2022-08-27T07:13:56.457Z,22.00
2022-08-27T07:16:25.667Z,22.10
2022-08-27T07:18:55.573Z,22.10
2022-08-27T07:21:23.639Z,22.10
2022-08-27T07:23:52.989Z,22.00
2022-08-27T07:26:22.452Z,22.00
2022-08-27T07:28:50.290Z,22.00
2022-08-27T07:31:19.602Z,22.10
2022-08-27T07:33:52.953Z,22.20
2022-08-27T07:36:22.026Z,22.30
2022-08-27T07:38:59.106Z,22.40
2022-08-27T07:41:31.001Z,22.50
2022-08-27T07:44:20.415Z,22.80
2022-08-27T07:46:49.351Z,22.90
2022-08-27T07:49:19.508Z,22.90
2022-08-27T07:51:46.889Z,23.00
2022-08-27T07:54:14.503Z,23.10
2022-08-27T07:56:41.940Z,23.20
2022-08-27T07:59:09.223Z,23.20
2022-08-27T08:01:36.601Z,23.10
2022-08-27T08:04:03.911Z,22.90
2022-08-27T08:06:30.934Z,22.90
2022-08-27T08:08:59.981Z,23.00
2022-08-27T08:11:26.863Z,23.00
2022-08-27T08:13:53.762Z,23.00
2022-08-27T08:16:28.318Z,22.80
2022-08-27T08:19:00.212Z,22.60
2022-08-27T08:21:27.101Z,22.40
2022-08-27T08:23:54.001Z,22.30
2022-08-27T08:26:20.898Z,22.20
2022-08-27T08:28:48.061Z,22.30
2022-08-27T08:31:14.969Z,22.30
2022-08-27T08:33:41.827Z,22.30
2022-08-27T08:36:15.002Z,22.30
2022-08-27T08:38:43.106Z,22.40
2022-08-27T08:41:28.033Z,22.40
2022-08-27T08:44:04.802Z,22.30
2022-08-27T08:46:37.685Z,22.40
2022-08-27T08:49:29.363Z,22.40
2022-08-27T08:51:59.169Z,22.40
2022-08-27T08:54:31.824Z,22.30
2022-08-27T08:57:01.896Z,22.40
2022-08-27T08:59:35.603Z,22.40
2022-08-27T09:02:02.518Z,22.40
2022-08-27T09:04:30.350Z,22.50
2022-08-27T09:07:00.602Z,22.30
2022-08-27T09:09:58.953Z,22.20
2022-08-27T09:12:30.254Z,21.90
2022-08-27T09:15:14.014Z,21.80
2022-08-27T09:17:42.190Z,21.70
2022-08-27T09:20:13.016Z,21.70
2022-08-27T09:22:51.684Z,21.60
2022-08-27T09:25:32.195Z,21.60
2022-08-27T09:28:02.343Z,21.60
2022-08-27T09:30:32.353Z,21.60
2022-08-27T09:33:04.220Z,21.50
2022-08-27T09:36:01.287Z,21.50
2022-08-27T09:38:35.162Z,21.60
2022-08-27T09:41:07.471Z,21.70
2022-08-27T09:43:34.681Z,21.60
2022-08-27T09:46:07.583Z,21.60
2022-08-27T09:48:37.699Z,21.60
2022-08-27T09:51:14.238Z,21.70
2022-08-27T09:54:00.775Z,21.80
2022-08-27T09:56:39.175Z,21.80
2022-08-27T09:59:12.549Z,22.00
2022-08-27T10:02:14.249Z,22.10
2022-08-27T10:04:51.914Z,22.20
2022-08-27T10:07:39.528Z,22.30
2022-08-27T10:10:26.138Z,22.20
2022-08-27T10:13:10.700Z,22.20
2022-08-27T10:15:43.309Z,22.30
2022-08-27T10:18:23.836Z,22.30
2022-08-27T10:21:12.382Z,22.10
2022-08-27T10:23:50.353Z,22.10
2022-08-27T10:26:33.265Z,22.20
2022-08-27T10:29:28.663Z,22.10
2022-08-27T10:32:05.622Z,22.00
2022-08-27T10:34:49.393Z,21.60
2022-08-27T10:37:47.711Z,21.30
2022-08-27T10:40:42.613Z,20.90
2022-08-27T10:43:32.466Z,20.80
2022-08-27T10:46:37.885Z,20.60
2022-08-27T10:49:38.334Z,20.40
2022-08-27T10:52:18.708Z,20.30
2022-08-27T10:54:55.472Z,20.30
2022-08-27T10:57:58.716Z,20.40
2022-08-27T11:00:55.720Z,20.50
2022-08-27T11:03:27.615Z,20.50
2022-08-27T11:06:03.425Z,20.50
2022-08-27T11:08:44.553Z,20.60
2022-08-27T11:14:14.901Z,20.60
2022-08-27T11:16:49.042Z,20.60
2022-08-27T11:19:39.704Z,20.60
2022-08-27T11:22:34.775Z,20.50
2022-08-27T11:25:06.503Z,20.50
2022-08-27T11:27:35.460Z,20.60
2022-08-27T11:30:18.880Z,20.60
2022-08-27T11:33:13.790Z,20.60
2022-08-27T11:36:09.145Z,20.60
2022-08-27T11:38:54.128Z,20.60
2022-08-27T11:41:45.301Z,20.60
2022-08-27T11:44:18.901Z,20.50
2022-08-27T11:46:49.405Z,20.50
2022-08-27T11:49:29.928Z,20.60
2022-08-27T11:52:07.291Z,20.60
2022-08-27T11:54:50.415Z,20.50
2022-08-27T11:57:37.845Z,20.50
2022-08-27T12:00:20.119Z,20.60
2022-08-27T12:03:03.485Z,20.60
2022-08-27T12:05:55.799Z,20.60
2022-08-27T12:08:22.628Z,20.60
2022-08-27T12:11:09.683Z,20.60
2022-08-27T12:14:12.327Z,20.60
2022-08-27T12:17:04.014Z,20.70
2022-08-27T12:19:57.104Z,20.80
2022-08-27T12:23:19.746Z,20.90
2022-08-27T12:26:01.662Z,21.00
2022-08-27T12:28:28.827Z,21.00
2022-08-27T12:30:56.498Z,20.90
2022-08-27T12:33:23.371Z,20.80
2022-08-27T12:35:53.437Z,20.80
2022-08-27T12:38:33.688Z,20.80
2022-08-27T12:41:08.971Z,20.80
2022-08-27T12:43:38.325Z,20.80
2022-08-27T12:46:15.016Z,20.90
2022-08-27T12:49:34.220Z,20.90
2022-08-27T12:51:52.909Z,20.90
2022-08-27T12:54:30.593Z,20.80
2022-08-27T12:57:17.498Z,20.90
2022-08-27T12:59:47.080Z,20.90
2022-08-27T13:02:35.003Z,20.90
2022-08-27T13:05:04.604Z,21.10
2022-08-27T13:07:47.238Z,21.10
2022-08-27T13:10:24.106Z,21.00
2022-08-27T13:13:05.308Z,21.00
2022-08-27T13:15:34.118Z,21.00
2022-08-27T13:18:04.712Z,21.00
2022-08-27T13:20:32.665Z,21.00
2022-08-27T13:22:59.553Z,21.10
2022-08-27T13:25:30.911Z,21.10
2022-08-27T13:28:11.503Z,21.20
2022-08-27T13:30:44.003Z,21.30
2022-08-27T13:33:21.554Z,21.30
2022-08-27T13:35:48.618Z,21.40
2022-08-27T13:38:16.005Z,21.40
2022-08-27T13:40:56.654Z,21.40
2022-08-27T13:43:35.363Z,21.50
2022-08-27T13:46:06.102Z,21.50
2022-08-27T13:48:33.673Z,21.40
2022-08-27T13:51:01.806Z,21.30
2022-08-27T13:53:50.588Z,21.30
2022-08-27T13:56:31.434Z,21.30
2022-08-27T13:59:13.344Z,21.30
2022-08-27T14:01:54.415Z,21.40
2022-08-27T14:04:25.570Z,21.30
2022-08-27T14:06:53.579Z,21.40
2022-08-27T14:09:27.932Z,21.40
2022-08-27T14:12:05.963Z,21.30
2022-08-27T14:14:38.512Z,21.30
2022-08-27T14:17:08.926Z,21.20
2022-08-27T14:19:37.174Z,21.20
2022-08-27T14:22:05.041Z,21.30
2022-08-27T14:24:31.851Z,21.30
2022-08-27T14:27:08.301Z,21.40
2022-08-27T14:29:36.002Z,21.50
2022-08-27T14:32:03.678Z,21.60
2022-08-27T14:34:30.555Z,21.70
2022-08-27T14:36:58.026Z,21.80
2022-08-27T14:42:12.435Z,22.10
2022-08-27T14:44:39.350Z,22.10
2022-08-27T14:47:09.531Z,22.20
2022-08-27T14:47:26.733Z,21.90
2022-08-27T14:49:40.246Z,22.30
2022-08-27T14:52:08.558Z,22.40
2022-08-27T14:54:35.960Z,22.40
2022-08-27T14:57:04.211Z,22.40
2022-08-27T14:59:32.263Z,22.40
2022-08-27T15:02:01.354Z,22.40
2022-08-27T15:04:29.598Z,22.40
2022-08-27T15:06:56.619Z,22.40
2022-08-27T15:09:23.647Z,22.40
2022-08-27T15:11:51.442Z,22.40
2022-08-27T15:14:33.413Z,22.40
2022-08-27T15:17:00.572Z,22.40
2022-08-27T15:19:29.341Z,22.50
2022-08-27T15:22:16.832Z,22.50
2022-08-27T15:24:47.447Z,22.40
2022-08-27T15:27:14.651Z,22.30
2022-08-27T15:29:42.354Z,22.40
2022-08-27T15:32:23.780Z,22.40
2022-08-27T15:34:57.600Z,22.50
2022-08-27T15:37:25.276Z,22.50
2022-08-27T15:39:52.626Z,22.50
2022-08-27T15:42:20.474Z,22.50
2022-08-27T15:44:51.248Z,22.40
2022-08-27T15:47:19.715Z,22.40
2022-08-27T15:49:46.986Z,22.20
2022-08-27T15:52:19.006Z,22.10
2022-08-27T15:54:48.954Z,22.00
2022-08-27T15:57:16.581Z,22.00
2022-08-27T15:59:44.757Z,22.00
2022-08-27T16:02:18.894Z,22.00
2022-08-27T16:04:47.713Z,21.90
2022-08-27T16:07:20.145Z,22.00
2022-08-27T16:09:48.556Z,21.90
2022-08-27T16:12:27.067Z,21.90
2022-08-27T16:14:55.404Z,22.00
2022-08-27T16:17:23.341Z,22.00
2022-08-27T16:19:50.155Z,22.10
2022-08-27T16:22:17.205Z,22.20
2022-08-27T16:24:44.735Z,22.20
2022-08-27T16:27:11.805Z,22.20
2022-08-27T16:29:38.834Z,22.20
2022-08-27T16:32:07.888Z,22.20
2022-08-27T16:34:35.165Z,22.20
2022-08-27T16:37:02.075Z,22.20
2022-08-27T16:39:33.685Z,22.20
2022-08-27T16:42:01.520Z,22.30
2022-08-27T16:44:28.408Z,22.20
2022-08-27T16:46:55.938Z,22.20
2022-08-27T16:49:41.274Z,22.30
2022-08-27T16:52:08.528Z,22.20
2022-08-27T16:54:35.761Z,22.20
2022-08-27T16:57:02.858Z,22.20
2022-08-27T16:59:29.697Z,22.10
2022-08-27T17:01:57.187Z,22.10
2022-08-27T17:04:31.340Z,22.10
2022-08-27T17:07:02.294Z,22.10
2022-08-27T17:09:30.510Z,22.10
2022-08-27T17:11:58.703Z,22.10
2022-08-27T17:14:26.898Z,22.10
2022-08-27T17:16:54.175Z,22.00
2022-08-27T17:19:26.267Z,21.90
2022-08-27T17:21:54.857Z,21.90
2022-08-27T17:24:21.903Z,21.80
2022-08-27T17:26:48.747Z,21.70
2022-08-27T17:29:15.639Z,21.70
2022-08-27T17:31:43.706Z,21.70
2022-08-27T17:34:16.622Z,21.70
2022-08-27T17:36:44.300Z,21.60
2022-08-27T17:39:12.056Z,21.60
2022-08-27T17:41:45.393Z,21.60
2022-08-27T17:44:37.037Z,21.50
2022-08-27T17:47:07.845Z,21.50
2022-08-27T17:49:35.601Z,21.50
2022-08-27T17:52:09.682Z,21.50
2022-08-27T17:54:40.830Z,21.50
2022-08-27T17:57:26.065Z,21.50
2022-08-27T17:59:53.638Z,21.50
2022-08-27T18:02:29.984Z,21.50
2022-08-27T18:04:57.248Z,21.40
2022-08-27T18:07:24.479Z,21.50
2022-08-27T18:09:51.823Z,21.40
2022-08-27T18:12:23.420Z,21.30
2022-08-27T18:15:05.923Z,21.20
2022-08-27T18:17:35.173Z,21.20
2022-08-27T18:20:05.021Z,21.20
2022-08-27T18:22:35.010Z,21.10
2022-08-27T18:25:06.242Z,21.10
2022-08-27T18:27:35.211Z,21.10
2022-08-27T18:30:02.424Z,21.00
2022-08-27T18:32:29.309Z,21.00
2022-08-27T18:34:58.805Z,20.80
2022-08-27T18:37:25.763Z,20.80
2022-08-27T18:39:52.635Z,20.70
2022-08-27T18:42:19.732Z,20.60
2022-08-27T18:44:47.473Z,20.60
2022-08-27T18:47:14.440Z,20.60
2022-08-27T18:49:41.291Z,20.50
2022-08-27T18:52:09.140Z,20.50
2022-08-27T18:54:36.061Z,20.50
2022-08-27T18:57:02.959Z,20.40
2022-08-27T18:59:29.862Z,20.40
2022-08-27T19:01:57.147Z,20.40
2022-08-27T19:04:24.613Z,20.40
2022-08-27T19:06:51.724Z,20.30
2022-08-27T19:09:21.020Z,20.30
2022-08-27T19:11:47.807Z,20.30
2022-08-27T19:14:14.692Z,20.20
2022-08-27T19:16:50.802Z,20.20
2022-08-27T19:19:18.297Z,20.20
2022-08-27T19:21:50.658Z,20.10
2022-08-27T19:24:22.170Z,20.10
2022-08-27T19:26:50.261Z,20.10
2022-08-27T19:29:18.095Z,20.10
2022-08-27T19:31:47.084Z,20.00
2022-08-27T19:34:14.148Z,20.00
2022-08-27T19:36:42.966Z,19.90
2022-08-27T19:39:12.419Z,19.90
2022-08-27T19:41:39.365Z,19.90
2022-08-27T19:44:06.142Z,19.90
2022-08-27T19:46:35.258Z,20.00
2022-08-27T19:49:02.646Z,20.00
2022-08-27T19:51:29.716Z,20.00
2022-08-27T19:53:57.026Z,19.90
2022-08-27T19:56:23.949Z,19.90
2022-08-27T19:58:55.205Z,19.80
2022-08-27T20:01:23.929Z,19.70
2022-08-27T20:03:51.044Z,19.70
2022-08-27T20:06:18.025Z,19.60
2022-08-27T20:08:44.986Z,19.60
2022-08-27T20:11:14.567Z,19.50
2022-08-27T20:13:50.410Z,19.40
2022-08-27T20:16:17.802Z,19.40
2022-08-27T20:18:45.086Z,19.50
2022-08-27T20:21:11.883Z,19.40
2022-08-27T20:23:38.762Z,19.40
2022-08-27T20:26:05.801Z,19.30
2022-08-27T20:28:40.539Z,19.30
2022-08-27T20:31:08.225Z,19.20
2022-08-27T20:33:35.295Z,19.20
2022-08-27T20:36:02.738Z,19.10
2022-08-27T20:38:29.663Z,19.10
2022-08-27T20:40:56.495Z,19.10
2022-08-27T20:43:23.345Z,19.00
2022-08-27T20:45:50.334Z,19.00
2022-08-27T20:48:17.301Z,19.00
2022-08-27T20:50:44.112Z,19.00
2022-08-27T20:53:11.070Z,19.00
2022-08-27T20:55:37.985Z,19.00
2022-08-27T20:58:23.924Z,18.90
2022-08-27T21:00:53.258Z,18.90
2022-08-27T21:03:20.441Z,18.80
2022-08-27T21:05:48.650Z,18.80
2022-08-27T21:08:18.249Z,18.80
2022-08-27T21:10:51.428Z,18.70
2022-08-27T21:13:19.727Z,18.70
2022-08-27T21:15:46.630Z,18.70
2022-08-27T21:18:13.556Z,18.60
2022-08-27T21:20:41.852Z,18.60
2022-08-27T21:23:09.376Z,18.70
2022-08-27T21:25:36.209Z,18.70
2022-08-27T21:28:04.635Z,18.70
2022-08-27T21:30:31.596Z,18.70
2022-08-27T21:32:58.561Z,18.70
2022-08-27T21:35:27.471Z,18.70
2022-08-27T21:37:58.948Z,18.70
2022-08-27T21:40:28.052Z,18.70
2022-08-27T21:42:56.179Z,18.80
2022-08-27T21:45:23.595Z,18.70
2022-08-27T21:47:52.048Z,18.80
2022-08-27T21:50:20.288Z,18.70
2022-08-27T21:52:47.369Z,18.80
2022-08-27T21:55:14.488Z,18.70
2022-08-27T21:57:41.360Z,18.70
2022-08-27T22:00:37.051Z,18.80
2022-08-27T22:03:04.905Z,18.70
2022-08-27T22:05:40.391Z,18.80
2022-08-27T22:08:08.743Z,18.80
2022-08-27T22:10:35.859Z,18.80
2022-08-27T22:13:03.362Z,18.70
2022-08-27T22:15:30.583Z,18.70
2022-08-27T22:17:57.777Z,18.80
2022-08-27T22:20:24.837Z,18.80
2022-08-27T22:22:52.515Z,18.80
2022-08-27T22:25:20.324Z,18.80
2022-08-27T22:27:47.122Z,18.80
2022-08-27T22:30:14.911Z,18.80
2022-08-27T22:32:42.472Z,18.80
2022-08-27T22:35:11.354Z,18.70
2022-08-27T22:37:38.290Z,18.70
2022-08-27T22:40:08.832Z,18.80
2022-08-27T22:42:46.629Z,18.70
2022-08-27T22:45:13.549Z,18.70
2022-08-27T22:47:40.441Z,18.70
2022-08-27T22:50:08.261Z,18.70
2022-08-27T22:52:36.784Z,18.70
2022-08-27T22:55:04.599Z,18.70
2022-08-27T22:57:31.664Z,18.80
2022-08-27T22:59:59.165Z,18.70
2022-08-27T23:02:26.159Z,18.70
2022-08-27T23:04:55.589Z,18.60
2022-08-27T23:07:24.175Z,18.60
2022-08-27T23:09:51.180Z,18.60
2022-08-27T23:12:20.087Z,18.60
2022-08-27T23:14:46.995Z,18.60
2022-08-27T23:17:14.551Z,18.60
2022-08-27T23:19:41.855Z,18.60
2022-08-27T23:22:09.787Z,18.50
2022-08-27T23:24:59.325Z,18.50
2022-08-27T23:27:28.971Z,18.50
2022-08-27T23:29:57.808Z,18.60
2022-08-27T23:32:24.935Z,18.60
2022-08-27T23:34:51.745Z,18.50
2022-08-27T23:37:18.708Z,18.50
2022-08-27T23:39:45.648Z,18.50
2022-08-27T23:42:15.962Z,18.50
2022-08-27T23:44:43.089Z,18.60
2022-08-27T23:47:10.318Z,18.60
2022-08-27T23:49:37.293Z,18.60
2022-08-27T23:52:05.750Z,18.50
2022-08-27T23:54:33.102Z,18.60
2022-08-27T23:57:00.039Z,18.60
2022-08-27T23:59:30.384Z,18.60
